Time;durP1;ratioP1;P1;durP2;ratioP2;P2;SDS_P1;SDS_P2;PMS_P1;PMS_P2;Temp;Humidity;BMP_temperature;BMP_pressure;BME280_temperature;BME280_humidity;BME280_pressure;Samples;Min_cycle;Max_cycle;Signal;HPM_P1;HPM_P2
2023/03/02 00:02:07;;;;;;;15.82;7.63;;;2.20;1.00;;;;;;5071821;28;20526;-73
2023/03/02 00:04:44;;;;;;;16.88;9.02;;;2.20;1.00;;;;;;5070524;28;20209;-74
2023/03/02 00:07:30;;;;;;;18.58;7.55;;;2.10;1.00;;;;;;5072378;28;20167;-74
2023/03/02 00:09:57;;;;;;;16.80;9.15;;;2.10;1.00;;;;;;5064706;28;20254;-74
2023/03/02 00:12:27;;;;;;;21.38;9.30;;;2.10;1.00;;;;;;5071349;28;20179;-74
2023/03/02 00:14:52;;;;;;;17.40;8.00;;;2.10;1.00;;;;;;5062734;28;20270;-73
2023/03/02 00:17:26;;;;;;;14.80;7.67;;;2.10;1.00;;;;;;5070861;28;20261;-74
2023/03/02 00:19:53;;;;;;;16.23;9.40;;;2.00;1.00;;;;;;5072371;28;20187;-74
2023/03/02 00:22:19;;;;;;;15.93;9.30;;;2.10;1.00;;;;;;5061065;28;20187;-74
2023/03/02 00:24:48;;;;;;;15.97;9.60;;;2.10;1.00;;;;;;5072653;28;20191;-74
2023/03/02 00:27:54;;;;;;;20.45;8.43;;;2.00;1.00;;;;;;5057676;28;20176;-80
2023/03/02 00:34:35;;;;;;;16.73;8.98;;;2.00;1.00;;;;;;5073214;28;20174;-80
2023/03/02 00:37:48;;;;;;;15.93;8.40;;;2.00;1.00;;;;;;5057538;28;20207;-80
2023/03/02 00:40:36;;;;;;;16.25;9.35;;;2.10;1.00;;;;;;5076377;28;20167;-80
2023/03/02 00:49:47;;;;;;;14.80;9.00;;;2.00;1.00;;;;;;5075968;28;20612;-80
2023/03/02 00:52:24;;;;;;;17.33;9.75;;;2.10;1.00;;;;;;5076240;28;20170;-80
2023/03/02 00:58:36;;;;;;;14.75;8.63;;;2.00;1.00;;;;;;5075555;28;20178;-80
2023/03/02 01:08:05;;;;;;;16.23;8.85;;;1.90;1.00;;;;;;5070472;28;20258;-80
2023/03/02 01:11:11;;;;;;;16.77;8.75;;;1.80;1.00;;;;;;5063010;28;20168;-80
2023/03/02 01:13:59;;;;;;;20.23;11.15;;;1.80;1.00;;;;;;5056999;28;20527;-80
2023/03/02 01:17:06;;;;;;;16.30;9.25;;;1.80;1.00;;;;;;5065904;28;20265;-80
2023/03/02 01:22:54;;;;;;;16.85;9.90;;;1.90;1.00;;;;;;5075462;28;20190;-80
2023/03/02 01:25:24;;;;;;;16.88;9.63;;;1.80;1.00;;;;;;5075481;28;20190;-80
2023/03/02 01:27:54;;;;;;;16.73;9.60;;;1.80;1.00;;;;;;5075443;28;20175;-74
2023/03/02 01:30:30;;;;;;;17.85;9.57;;;1.80;1.00;;;;;;5075316;28;20237;-74
2023/03/02 01:32:56;;;;;;;14.27;8.63;;;1.80;1.00;;;;;;5075324;28;20634;-74
2023/03/02 01:35:21;;;;;;;17.33;10.00;;;1.80;1.00;;;;;;5077958;28;20185;-74
2023/03/02 01:37:47;;;;;;;17.80;8.93;;;1.80;1.00;;;;;;5082881;28;20183;-74
2023/03/02 01:40:18;;;;;;;18.30;8.50;;;1.80;1.00;;;;;;5074460;28;20182;-74
2023/03/02 01:43:09;;;;;;;14.88;8.38;;;1.80;1.00;;;;;;5075391;28;20167;-80
2023/03/02 01:46:11;;;;;;;15.10;8.93;;;1.70;1.00;;;;;;5063299;28;20195;-80
2023/03/02 01:49:10;;;;;;;17.85;9.15;;;1.70;1.00;;;;;;5074820;28;20174;-80
2023/03/02 01:51:42;;;;;;;18.17;9.55;;;1.70;1.00;;;;;;5065655;28;20183;-80
2023/03/02 01:54:48;;;;;;;17.30;9.60;;;1.80;1.00;;;;;;5066668;28;20225;-80
2023/03/02 01:57:20;;;;;;;19.35;9.45;;;1.70;1.00;;;;;;5073690;28;20182;-74
2023/03/02 01:59:59;;;;;;;16.92;9.32;;;1.70;1.00;;;;;;5074487;28;20194;-74
2023/03/02 02:02:40;;;;;;;20.90;9.90;;;1.70;1.00;;;;;;5067593;28;20740;-74
2023/03/02 02:05:12;;;;;;;19.77;9.45;;;1.70;1.00;;;;;;5063079;28;20195;-74
2023/03/02 02:07:42;;;;;;;15.52;9.00;;;1.70;1.00;;;;;;5072413;28;20702;-74
2023/03/02 02:10:10;;;;;;;17.02;9.40;;;1.70;1.00;;;;;;5074595;28;20650;-76
2023/03/02 02:12:35;;;;;;;16.02;9.55;;;1.70;1.00;;;;;;5075380;28;20177;-74
2023/03/02 02:15:02;;;;;;;18.83;9.50;;;1.70;1.00;;;;;;5056390;28;20202;-74
2023/03/02 02:17:29;;;;;;;16.67;9.50;;;1.70;1.00;;;;;;5070334;28;20193;-74
2023/03/02 02:20:06;;;;;;;18.40;9.80;;;1.70;1.00;;;;;;5068565;28;20167;-74
2023/03/02 02:22:38;;;;;;;20.70;10.20;;;1.70;1.00;;;;;;5065894;28;20187;-74
2023/03/02 02:25:19;;;;;;;15.82;9.40;;;1.70;1.00;;;;;;5073361;28;20685;-74
2023/03/02 02:28:35;;;;;;;18.10;8.65;;;1.70;1.00;;;;;;5067656;28;20186;-80
2023/03/02 02:34:48;;;;;;;15.32;8.57;;;1.50;1.00;;;;;;5068865;28;20185;-80
2023/03/02 02:41:07;;;;;;;18.05;9.68;;;1.50;1.00;;;;;;5072228;28;20190;-80
2023/03/02 02:43:36;;;;;;;13.98;8.60;;;1.50;1.00;;;;;;5074348;28;20262;-74
2023/03/02 02:46:02;;;;;;;16.23;8.63;;;1.50;1.00;;;;;;5073967;28;20198;-73
2023/03/02 02:48:31;;;;;;;17.45;9.50;;;1.50;1.00;;;;;;5073895;28;20622;-74
2023/03/02 02:51:09;;;;;;;19.23;10.65;;;1.50;1.00;;;;;;5073965;28;20530;-74
2023/03/02 02:53:57;;;;;;;16.90;9.30;;;1.50;1.00;;;;;;5066189;28;20216;-74
2023/03/02 02:56:33;;;;;;;17.42;9.52;;;1.50;1.00;;;;;;5060670;28;20198;-74
2023/03/02 02:59:38;;;;;;;18.25;8.90;;;1.50;1.00;;;;;;5083373;28;20173;-80
2023/03/02 03:02:41;;;;;;;16.23;9.02;;;1.50;1.00;;;;;;5073414;28;20186;-80
2023/03/02 03:05:42;;;;;;;15.82;8.85;;;1.50;1.00;;;;;;5074004;28;20288;-80
2023/03/02 03:08:44;;;;;;;17.38;9.98;;;1.40;1.00;;;;;;5073749;28;20185;-81
2023/03/02 03:11:22;;;;;;;14.68;8.52;;;1.40;1.00;;;;;;5052363;28;20257;-80
2023/03/02 03:13:54;;;;;;;16.45;9.60;;;1.40;1.00;;;;;;5073780;28;20303;-74
2023/03/02 03:16:40;;;;;;;20.85;9.95;;;1.40;1.00;;;;;;5073763;28;20187;-74
2023/03/02 03:19:14;;;;;;;16.10;9.25;;;1.30;1.00;;;;;;5065373;28;20175;-74
2023/03/02 03:21:42;;;;;;;15.63;9.45;;;1.30;1.00;;;;;;5055549;28;20152;-75
2023/03/02 03:24:12;;;;;;;13.88;8.73;;;1.30;1.00;;;;;;5071351;28;20237;-74
2023/03/02 03:26:55;;;;;;;19.58;8.90;;;1.20;1.00;;;;;;5069493;28;20629;-74
2023/03/02 03:29:40;;;;;;;15.32;8.63;;;1.30;1.00;;;;;;5065868;28;20187;-80
2023/03/02 03:32:06;;;;;;;18.98;9.07;;;1.30;1.00;;;;;;5073187;28;20712;-80
2023/03/02 03:38:36;;;;;;;14.50;8.20;;;1.30;1.00;;;;;;5068728;28;20213;-80
2023/03/02 03:41:54;;;;;;;17.17;9.63;;;1.40;1.00;;;;;;5073081;28;20691;-80
2023/03/02 03:44:20;;;;;;;17.15;9.85;;;1.40;1.00;;;;;;5062755;28;20217;-74
2023/03/02 03:47:00;;;;;;;13.80;8.55;;;1.30;1.00;;;;;;5072966;28;20171;-74
2023/03/02 03:49:36;;;;;;;19.02;9.73;;;1.30;1.00;;;;;;5060010;28;20801;-74
2023/03/02 03:52:12;;;;;;;15.70;8.52;;;1.30;1.00;;;;;;5071024;28;20170;-74
2023/03/02 03:54:38;;;;;;;18.15;8.93;;;1.30;1.00;;;;;;5066619;28;20635;-74
2023/03/02 03:57:30;;;;;;;19.80;9.90;;;1.30;1.00;;;;;;5066231;28;20321;-74
2023/03/02 04:00:09;;;;;;;18.15;8.32;;;1.20;1.00;;;;;;5063141;28;20230;-80
2023/03/02 04:02:36;;;;;;;16.73;9.02;;;1.20;1.00;;;;;;5073730;28;20217;-80
2023/03/02 04:05:07;;;;;;;16.23;9.38;;;1.20;1.00;;;;;;5077214;28;20563;-80
2023/03/02 04:07:37;;;;;;;14.75;8.63;;;1.10;1.00;;;;;;5074757;28;20680;-80
2023/03/02 04:10:36;;;;;;;15.05;8.65;;;1.10;1.00;;;;;;5058888;28;20190;-80
2023/03/02 04:13:36;;;;;;;13.90;8.48;;;1.20;1.00;;;;;;5084762;28;20173;-80
2023/03/02 04:16:06;;;;;;;14.32;8.27;;;1.10;1.00;;;;;;5068572;28;20183;-80
2023/03/02 04:18:36;;;;;;;15.38;8.95;;;1.20;1.00;;;;;;5072557;28;20538;-80
2023/03/02 04:21:06;;;;;;;18.48;9.32;;;1.20;1.00;;;;;;5058840;28;20187;-80
2023/03/02 04:23:36;;;;;;;15.75;8.85;;;1.10;1.00;;;;;;5076598;28;20638;-80
2023/03/02 04:26:06;;;;;;;12.95;8.00;;;1.20;1.00;;;;;;5076628;28;20206;-81
2023/03/02 04:28:42;;;;;;;15.70;8.82;;;1.20;1.00;;;;;;5073699;28;20231;-80
2023/03/02 04:31:36;;;;;;;13.40;8.25;;;1.10;1.00;;;;;;5067538;28;20513;-80
2023/03/02 04:34:07;;;;;;;16.15;8.25;;;1.20;1.00;;;;;;5066950;28;20765;-81
2023/03/02 04:37:06;;;;;;;16.05;9.13;;;1.20;1.00;;;;;;5074744;28;20225;-81
2023/03/02 04:39:36;;;;;;;15.05;8.70;;;1.20;1.00;;;;;;5076336;28;20526;-81
2023/03/02 04:42:36;;;;;;;14.73;8.85;;;1.20;1.00;;;;;;5075686;28;20186;-80
2023/03/02 04:45:36;;;;;;;15.63;9.15;;;1.20;1.00;;;;;;5076698;28;20207;-81
2023/03/02 04:48:02;;;;;;;16.38;8.93;;;1.20;1.00;;;;;;5067063;28;20685;-80
2023/03/02 04:50:37;;;;;;;17.75;8.55;;;1.10;1.00;;;;;;5080403;28;20173;-80
2023/03/02 04:53:06;;;;;;;14.95;8.70;;;1.10;1.00;;;;;;5084133;28;20183;-80
2023/03/02 04:55:32;;;;;;;15.90;8.57;;;1.10;1.00;;;;;;5075861;28;20195;-80
2023/03/02 04:58:07;;;;;;;15.10;8.27;;;1.00;1.00;;;;;;5057682;28;20668;-80
2023/03/02 05:01:06;;;;;;;20.15;9.20;;;1.00;1.00;;;;;;5063297;28;20170;-80
2023/03/02 05:03:36;;;;;;;14.85;8.35;;;1.10;1.00;;;;;;5071051;28;20179;-80
2023/03/02 05:06:07;;;;;;;14.75;8.07;;;1.00;1.00;;;;;;5068012;28;20198;-81
2023/03/02 05:08:36;;;;;;;17.55;9.27;;;1.00;1.00;;;;;;5075183;28;20201;-81
2023/03/02 05:11:07;;;;;;;15.43;8.40;;;1.00;1.00;;;;;;5076096;28;20336;-80
2023/03/02 05:13:36;;;;;;;14.55;8.35;;;1.00;1.00;;;;;;5072186;28;20190;-74
2023/03/02 05:16:06;;;;;;;15.60;7.63;;;1.00;1.00;;;;;;5074999;28;20179;-74
2023/03/02 05:18:36;;;;;;;12.75;7.50;;;1.00;1.00;;;;;;5067839;28;20190;-74
2023/03/02 05:21:06;;;;;;;12.55;7.10;;;1.00;1.00;;;;;;5070634;28;20258;-75
2023/03/02 05:23:36;;;;;;;15.52;8.13;;;1.10;1.00;;;;;;5075076;28;20195;-74
2023/03/02 05:26:02;;;;;;;16.63;8.55;;;1.10;1.00;;;;;;5071116;28;20202;-75
2023/03/02 05:28:40;;;;;;;12.13;7.20;;;1.00;1.00;;;;;;5069817;28;20539;-75
2023/03/02 05:31:07;;;;;;;13.52;7.75;;;1.10;1.00;;;;;;5068284;28;20420;-81
2023/03/02 05:33:36;;;;;;;16.38;7.63;;;1.10;1.00;;;;;;5075133;28;20196;-81
2023/03/02 05:36:06;;;;;;;12.63;7.60;;;1.10;1.00;;;;;;5074788;28;20198;-81
2023/03/02 05:38:54;;;;;;;14.98;8.80;;;1.10;1.00;;;;;;5065351;28;20187;-87
2023/03/02 05:42:00;;;;;;;16.52;7.90;;;1.10;1.00;;;;;;5047827;28;20184;-87
2023/03/02 05:44:36;;;;;;;13.35;7.88;;;1.10;1.00;;;;;;5074405;28;20202;-76
2023/03/02 05:47:06;;;;;;;15.25;8.30;;;1.20;1.00;;;;;;5075043;28;20217;-76
2023/03/02 05:49:36;;;;;;;14.32;8.15;;;1.20;1.00;;;;;;5074254;28;20183;-76
2023/03/02 05:52:06;;;;;;;17.15;8.48;;;1.20;1.00;;;;;;5074392;28;20198;-76
2023/03/02 05:54:32;;;;;;;10.82;6.78;;;1.20;1.00;;;;;;5074933;28;20701;-76
2023/03/02 05:57:06;;;;;;;13.33;7.73;;;1.20;1.00;;;;;;5059072;28;20310;-76
2023/03/02 05:59:32;;;;;;;14.88;7.72;;;1.20;1.00;;;;;;5078566;28;20174;-75
2023/03/02 06:02:42;;;;;;;11.33;7.07;;;1.20;1.00;;;;;;5070049;28;20230;-76
2023/03/02 06:05:18;;;;;;;14.23;7.70;;;1.20;1.00;;;;;;5074023;28;20234;-76
2023/03/02 06:07:54;;;;;;;12.07;7.40;;;1.30;1.00;;;;;;5043944;28;20513;-76
2023/03/02 06:10:36;;;;;;;13.00;7.47;;;1.20;1.00;;;;;;5076714;28;20329;-76
2023/03/02 06:13:54;;;;;;;14.10;7.97;;;1.20;1.00;;;;;;5074971;28;20179;-76
2023/03/02 06:17:12;;;;;;;18.38;8.25;;;1.20;1.00;;;;;;5072542;28;20290;-87
2023/03/02 06:20:12;;;;;;;13.70;7.75;;;1.20;1.00;;;;;;5053991;28;20180;-87
2023/03/02 06:29:22;;;;;;;13.68;7.75;;;1.10;1.00;;;;;;5075646;28;20246;-77
2023/03/02 06:32:12;;;;;;;10.27;6.87;;;1.10;1.00;;;;;;5087926;28;20177;-76
2023/03/02 06:34:50;;;;;;;10.82;6.78;;;1.20;1.00;;;;;;5063418;28;20175;-76
2023/03/02 06:37:31;;;;;;;13.23;7.90;;;1.30;1.00;;;;;;5072758;28;20175;-76
2023/03/02 06:40:08;;;;;;;14.77;8.57;;;1.30;1.00;;;;;;5071533;28;20622;-76
2023/03/02 06:42:34;;;;;;;12.55;7.78;;;1.20;1.00;;;;;;5068647;28;20244;-74
2023/03/02 06:45:00;;;;;;;12.43;7.63;;;1.30;1.00;;;;;;5072201;28;20202;-74
2023/03/02 06:47:32;;;;;;;11.43;7.00;;;1.40;1.00;;;;;;5066674;28;20418;-74
2023/03/02 06:50:07;;;;;;;13.80;7.53;;;1.40;1.00;;;;;;5084391;28;20182;-74
2023/03/02 06:52:54;;;;;;;16.08;6.57;;;1.50;1.00;;;;;;5065543;28;20524;-74
2023/03/02 06:55:19;;;;;;;12.50;7.68;;;1.60;1.00;;;;;;5054193;28;20159;-74
2023/03/02 06:57:48;;;;;;;12.63;7.30;;;1.60;1.00;;;;;;5073493;28;20266;-73
2023/03/02 07:00:16;;;;;;;14.10;7.20;;;1.70;1.00;;;;;;5057272;28;20179;-73
2023/03/02 07:02:45;;;;;;;22.33;7.40;;;1.80;1.00;;;;;;5073397;28;20210;-73
2023/03/02 07:05:12;;;;;;;13.82;7.50;;;1.80;1.00;;;;;;5073209;28;20194;-73
2023/03/02 07:07:38;;;;;;;11.90;7.05;;;1.90;1.00;;;;;;5071683;28;20282;-73
2023/03/02 07:10:07;;;;;;;11.60;7.20;;;1.90;1.00;;;;;;5070912;28;20495;-74
2023/03/02 07:12:48;;;;;;;11.50;6.75;;;2.00;1.00;;;;;;5052128;28;20519;-73
2023/03/02 07:15:15;;;;;;;12.48;7.05;;;2.00;1.00;;;;;;5064372;28;20264;-73
2023/03/02 07:17:43;;;;;;;14.18;6.78;;;2.10;1.00;;;;;;5062202;28;20190;-73
2023/03/02 07:20:10;;;;;;;12.80;5.95;;;2.20;1.00;;;;;;5073352;28;20519;-74
2023/03/02 07:22:36;;;;;;;12.85;6.10;;;2.30;1.00;;;;;;5073576;28;20179;-73
2023/03/02 07:25:02;;;;;;;11.93;6.40;;;2.30;1.00;;;;;;5074777;28;20198;-73
2023/03/02 07:27:28;;;;;;;12.90;5.90;;;2.30;1.00;;;;;;5060998;28;20260;-73
2023/03/02 07:29:54;;;;;;;15.33;7.00;;;2.40;1.00;;;;;;5070386;28;20429;-73
2023/03/02 07:32:24;;;;;;;17.43;6.77;;;2.50;1.00;;;;;;5067673;28;20171;-73
2023/03/02 07:34:50;;;;;;;17.98;6.75;;;2.60;1.00;;;;;;5068464;28;20519;-73
2023/03/02 07:37:16;;;;;;;13.30;6.60;;;2.70;1.00;;;;;;5073353;28;20179;-73
2023/03/02 07:40:00;;;;;;;14.03;6.60;;;2.80;1.00;;;;;;5082765;28;20182;-74
2023/03/02 07:42:26;;;;;;;13.45;7.20;;;2.90;1.00;;;;;;5074377;28;20206;-69
2023/03/02 07:44:54;;;;;;;12.43;6.27;;;2.90;1.00;;;;;;5072811;28;20293;-69
2023/03/02 07:47:36;;;;;;;12.60;5.85;;;3.00;1.00;;;;;;5075202;28;20273;-77
2023/03/02 07:50:18;;;;;;;15.35;6.53;;;3.00;1.00;;;;;;5076735;28;20175;-77
2023/03/02 07:53:06;;;;;;;15.17;7.50;;;3.10;1.00;;;;;;5063846;28;20176;-77
2023/03/02 07:56:07;;;;;;;13.60;6.53;;;3.20;1.00;;;;;;5066595;28;20428;-82
2023/03/02 07:58:37;;;;;;;13.02;6.90;;;3.30;1.00;;;;;;5068790;28;20734;-78
2023/03/02 08:01:07;;;;;;;15.23;7.35;;;3.40;1.00;;;;;;5066064;28;20189;-78
2023/03/02 08:03:37;;;;;;;10.80;5.20;;;3.50;1.00;;;;;;5076948;28;20171;-78
2023/03/02 08:06:36;;;;;;;18.50;6.13;;;3.60;1.00;;;;;;5076991;28;20209;-77
2023/03/02 08:09:06;;;;;;;11.00;6.33;;;3.70;1.00;;;;;;5076841;28;20405;-77
2023/03/02 08:11:36;;;;;;;14.02;6.53;;;3.70;1.00;;;;;;5076896;28;20425;-77
2023/03/02 08:14:02;;;;;;;12.83;6.80;;;3.80;1.00;;;;;;5076304;28;20183;-79
2023/03/02 08:16:29;;;;;;;14.23;7.03;;;3.90;1.00;;;;;;5071288;28;20422;-70
2023/03/02 08:18:55;;;;;;;14.70;7.23;;;3.90;1.00;;;;;;5074370;28;20258;-70
2023/03/02 08:21:23;;;;;;;13.50;7.20;;;4.00;1.00;;;;;;5079613;28;20420;-71
2023/03/02 08:23:52;;;;;;;13.33;6.70;;;4.20;1.00;;;;;;5074017;28;20417;-71
2023/03/02 08:26:37;;;;;;;19.20;6.60;;;4.20;1.00;;;;;;5071946;28;20459;-71
2023/03/02 08:29:04;;;;;;;13.87;6.50;;;4.30;1.00;;;;;;5061880;28;20426;-71
2023/03/02 08:31:30;;;;;;;16.40;7.40;;;4.40;1.00;;;;;;5056731;28;20422;-75
2023/03/02 08:34:06;;;;;;;15.47;6.90;;;4.40;1.00;;;;;;5062840;28;20460;-74
2023/03/02 08:36:38;;;;;;;14.00;7.20;;;4.50;1.00;;;;;;5075716;28;20409;-75
2023/03/02 08:39:06;;;;;;;13.90;7.37;;;4.60;1.00;;;;;;5076174;28;20444;-76
2023/03/02 08:41:36;;;;;;;12.63;5.87;;;4.60;1.00;;;;;;5074369;28;20440;-75
2023/03/02 08:44:02;;;;;;;14.23;6.80;;;4.80;1.00;;;;;;5067626;28;20430;-75
2023/03/02 08:46:30;;;;;;;15.20;8.10;;;4.80;1.00;;;;;;5080660;28;20753;-72
2023/03/02 08:48:56;;;;;;;14.47;8.23;;;4.90;1.00;;;;;;5082565;28;20226;-72
2023/03/02 08:51:24;;;;;;;13.87;7.67;;;5.00;1.00;;;;;;5074036;28;20418;-72
2023/03/02 08:54:01;;;;;;;14.93;7.17;;;5.00;1.00;;;;;;5067694;28;20421;-73
2023/03/02 08:57:01;;;;;;;14.93;7.50;;;5.10;1.00;;;;;;5066175;28;20448;-86
2023/03/02 09:02:48;;;;;;;14.93;7.03;;;5.30;1.00;;;;;;5061255;28;20410;-87
2023/03/02 09:05:17;;;;;;;12.80;7.70;;;5.40;1.00;;;;;;5069879;28;20461;-86
2023/03/02 09:08:01;;;;;;;11.43;6.87;;;5.50;1.00;;;;;;5068077;28;20190;-87
2023/03/02 09:10:27;;;;;;;13.57;8.00;;;5.60;1.00;;;;;;5075768;28;21163;-87
2023/03/02 09:13:24;;;;;;;22.37;9.30;;;5.60;1.00;;;;;;5076705;28;20409;-87
2023/03/02 09:15:54;;;;;;;16.13;8.67;;;5.70;1.00;;;;;;5075975;28;20232;-87
2023/03/02 09:26:00;;;;;;;19.77;7.83;;;6.10;1.00;;;;;;5073820;28;20529;-88
2023/03/02 09:35:09;;;;;;;15.63;8.07;;;6.40;1.00;;;;;;5075779;28;20397;-88
2023/03/02 09:38:18;;;;;;;20.80;8.53;;;6.50;1.00;;;;;;5053783;28;20414;-88
2023/03/02 09:41:24;;;;;;;17.37;8.33;;;6.70;1.00;;;;;;5038198;28;20187;-89
2023/03/02 09:47:30;;;;;;;18.40;8.90;;;6.70;1.00;;;;;;5075237;28;20475;-76
2023/03/02 09:50:21;;;;;;;18.10;8.33;;;6.80;1.00;;;;;;5077334;28;20739;-74
2023/03/02 09:53:30;;;;;;;14.17;7.83;;;6.90;1.00;;;;;;5082972;28;20413;-76
2023/03/02 09:56:17;;;;;;;16.50;8.57;;;7.00;1.00;;;;;;5068385;28;20421;-75
2023/03/02 09:58:52;;;;;;;15.70;8.50;;;7.10;1.00;;;;;;5074831;28;20485;-75
2023/03/02 10:01:28;;;;;;;14.00;7.93;;;7.10;1.00;;;;;;5085562;28;20419;-75
2023/03/02 10:04:00;;;;;;;15.17;8.50;;;7.20;1.00;;;;;;5066288;28;20904;-75
2023/03/02 10:06:56;;;;;;;15.90;9.50;;;7.40;1.00;;;;;;5067840;28;20498;-75
2023/03/02 10:09:22;;;;;;;15.80;8.90;;;7.60;1.00;;;;;;5078961;28;20417;-75
2023/03/02 10:12:09;;;;;;;15.47;7.97;;;7.60;1.00;;;;;;5076769;28;20524;-75
2023/03/02 10:15:09;;;;;;;15.53;9.07;;;7.70;1.00;;;;;;5056676;28;20524;-75
2023/03/02 10:17:44;;;;;;;14.87;8.37;;;7.80;1.00;;;;;;4993081;28;20436;-80
2023/03/02 10:24:10;;;;;;;21.27;9.20;;;7.90;1.00;;;;;;4974867;28;20522;-80
2023/03/02 10:27:16;;;;;;;17.50;8.80;;;8.00;1.00;;;;;;4935208;29;20443;-80
2023/03/02 10:33:12;;;;;;;20.83;8.60;;;8.20;1.00;;;;;;4934325;28;20418;-84
2023/03/02 10:36:30;;;;;;;16.33;8.80;;;8.40;1.00;;;;;;4946800;29;21018;-84
2023/03/02 10:53:00;;;;;;;16.80;8.77;;;9.00;1.00;;;;;;4932072;28;20976;-84
2023/03/02 10:55:48;;;;;;;15.63;7.63;;;9.10;1.00;;;;;;4985056;28;20431;-84
2023/03/02 11:01:35;;;;;;;17.40;8.67;;;9.10;1.00;;;;;;5048792;28;20411;-83
2023/03/02 11:07:30;;;;;;;14.23;7.57;;;9.40;1.00;;;;;;5071487;28;20281;-84
2023/03/02 11:10:33;;;;;;;16.50;9.00;;;9.40;1.00;;;;;;5065901;28;20941;-83
2023/03/02 11:16:29;;;;;;;20.60;8.13;;;9.60;1.00;;;;;;4992475;28;20464;-82
2023/03/02 11:19:24;;;;;;;14.20;8.30;;;9.80;1.00;;;;;;5008324;28;20428;-82
2023/03/02 11:22:19;;;;;;;15.37;8.47;;;9.80;1.00;;;;;;4974943;28;20505;-82
2023/03/02 11:25:18;;;;;;;20.23;8.23;;;9.90;1.00;;;;;;4992496;28;20559;-82
2023/03/02 11:31:13;;;;;;;16.70;8.47;;;10.10;1.00;;;;;;5012162;28;20403;-83
2023/03/02 11:37:23;;;;;;;20.10;10.07;;;10.20;1.00;;;;;;4995500;28;20528;-84
2023/03/02 11:43:11;;;;;;;21.10;8.40;;;10.40;1.00;;;;;;4996794;28;20413;-86
2023/03/02 11:46:04;;;;;;;15.23;8.23;;;10.60;1.00;;;;;;4994884;28;20462;-81
2023/03/02 11:51:59;;;;;;;16.07;8.37;;;10.80;1.00;;;;;;5060801;28;20376;-78
2023/03/02 11:55:23;;;;;;;19.90;8.33;;;10.90;1.00;;;;;;5072682;28;20479;-77
2023/03/02 12:01:18;;;;;;;17.60;9.20;;;11.10;1.00;;;;;;5004652;28;20441;-79
2023/03/02 12:11:14;;;;;;;16.53;8.70;;;11.30;1.00;;;;;;4991176;28;20412;-79
2023/03/02 12:14:02;;;;;;;22.40;8.60;;;11.30;1.00;;;;;;4997934;28;20766;-78
2023/03/02 12:17:12;;;;;;;25.07;7.90;;;11.50;1.00;;;;;;4990484;28;20819;-79
2023/03/02 12:20:21;;;;;;;19.80;8.77;;;11.50;1.00;;;;;;4992084;28;20476;-81
2023/03/02 12:26:48;;;;;;;14.70;7.57;;;11.60;1.00;;;;;;4991851;28;20463;-84
2023/03/02 12:32:35;;;;;;;18.00;7.90;;;11.90;1.00;;;;;;5060304;28;20902;-82
2023/03/02 12:35:42;;;;;;;13.97;7.73;;;11.90;1.00;;;;;;5067678;28;20416;-77
2023/03/02 12:45:13;;;;;;;16.53;8.70;;;12.20;1.00;;;;;;5069517;28;20506;-79
2023/03/02 12:48:21;;;;;;;12.87;7.90;;;12.20;1.00;;;;;;5076142;28;20447;-80
2023/03/02 12:54:30;;;;;;;13.33;7.83;;;12.30;1.00;;;;;;5072730;28;20391;-83
2023/03/02 12:57:14;;;;;;;19.47;9.37;;;12.40;1.00;;;;;;5071280;28;20388;-83
2023/03/02 13:03:05;;;;;;;13.97;8.50;;;12.40;1.00;;;;;;5065162;28;20803;-83
2023/03/02 13:05:43;;;;;;;17.70;8.57;;;12.50;1.00;;;;;;5072738;28;20431;-80
2023/03/02 13:08:54;;;;;;;18.77;8.53;;;12.50;1.00;;;;;;5072825;28;20423;-81
2023/03/02 13:11:35;;;;;;;14.50;8.63;;;12.60;1.00;;;;;;5066447;28;21003;-79
2023/03/02 13:14:02;;;;;;;13.93;8.37;;;12.60;1.00;;;;;;5075284;28;20935;-79
2023/03/02 13:17:12;;;;;;;20.63;8.43;;;12.60;1.00;;;;;;5074467;28;20380;-79
2023/03/02 13:26:32;;;;;;;13.93;7.20;;;12.70;1.00;;;;;;5075529;28;20499;-83
2023/03/02 13:32:37;;;;;;;17.50;8.30;;;12.70;1.00;;;;;;5073479;28;20396;-87
2023/03/02 13:35:37;;;;;;;14.53;7.87;;;12.70;1.00;;;;;;5072254;28;20396;-89
2023/03/02 13:44:47;;;;;;;13.70;7.93;;;13.00;1.00;;;;;;5061199;28;20447;-83
2023/03/02 13:47:43;;;;;;;12.00;6.23;;;13.00;1.00;;;;;;5069709;28;20512;-82
2023/03/02 13:50:22;;;;;;;20.20;7.23;;;12.90;1.00;;;;;;5059567;28;20203;-81
2023/03/02 13:53:12;;;;;;;13.37;8.07;;;12.80;1.00;;;;;;5057140;28;20413;-82
2023/03/02 13:56:14;;;;;;;15.70;7.70;;;12.70;1.00;;;;;;5070553;28;20504;-80
2023/03/02 13:59:24;;;;;;;13.83;8.23;;;12.90;1.00;;;;;;5054454;28;20517;-83
2023/03/02 14:02:30;;;;;;;17.33;8.30;;;13.00;1.00;;;;;;5077991;28;20412;-83
2023/03/02 14:04:56;;;;;;;16.50;7.80;;;13.10;1.00;;;;;;5074871;28;20930;-69
2023/03/02 14:07:22;;;;;;;15.33;7.60;;;13.30;1.00;;;;;;5079077;28;20510;-69
2023/03/02 14:09:48;;;;;;;12.53;7.47;;;13.30;1.00;;;;;;5069826;28;20634;-69
2023/03/02 14:12:26;;;;;;;18.10;8.20;;;13.30;1.00;;;;;;5066563;28;20214;-69
2023/03/02 14:14:53;;;;;;;19.67;8.53;;;13.30;1.00;;;;;;5070959;28;20186;-70
2023/03/02 14:17:23;;;;;;;18.30;7.63;;;13.40;1.00;;;;;;5061397;28;20917;-70
2023/03/02 14:19:51;;;;;;;15.97;8.07;;;13.50;1.00;;;;;;5077682;28;20448;-70
2023/03/02 14:22:28;;;;;;;12.43;7.33;;;13.60;1.00;;;;;;5072807;28;20388;-69
2023/03/02 14:24:54;;;;;;;18.20;9.00;;;13.60;1.00;;;;;;5069004;28;20435;-69
2023/03/02 14:27:28;;;;;;;17.20;8.40;;;13.50;1.00;;;;;;5072944;28;20440;-70
2023/03/02 14:29:54;;;;;;;13.03;7.80;;;13.40;1.00;;;;;;5063847;28;20182;-69
2023/03/02 14:32:19;;;;;;;22.33;8.90;;;13.50;1.00;;;;;;5069821;28;20424;-70
2023/03/02 14:34:45;;;;;;;17.27;8.57;;;13.50;1.00;;;;;;5064170;28;20277;-69
2023/03/02 14:37:14;;;;;;;16.93;8.47;;;13.50;1.00;;;;;;5065327;28;20233;-70
2023/03/02 14:39:42;;;;;;;19.03;8.50;;;13.60;1.00;;;;;;5059318;28;20259;-69
2023/03/02 14:42:19;;;;;;;17.50;8.80;;;13.60;1.00;;;;;;5069049;28;20395;-70
2023/03/02 14:44:46;;;;;;;14.27;8.30;;;13.60;1.00;;;;;;5062839;28;20807;-69
2023/03/02 14:47:12;;;;;;;15.03;8.20;;;13.50;1.00;;;;;;5072033;28;20475;-69
2023/03/02 14:49:38;;;;;;;15.00;8.30;;;13.60;1.00;;;;;;5067851;28;20425;-69
2023/03/02 14:52:11;;;;;;;18.00;8.20;;;13.50;1.00;;;;;;5064040;28;20479;-69
2023/03/02 14:54:59;;;;;;;15.00;8.50;;;13.50;1.00;;;;;;5065112;28;20422;-69
2023/03/02 14:57:27;;;;;;;13.50;8.53;;;13.40;1.00;;;;;;5062477;28;20392;-69
2023/03/02 14:59:54;;;;;;;18.93;7.60;;;13.40;1.00;;;;;;5070549;28;20472;-69
2023/03/02 15:02:22;;;;;;;22.03;8.20;;;13.40;1.00;;;;;;5060153;28;20501;-69
2023/03/02 15:04:50;;;;;;;19.40;9.77;;;13.30;1.00;;;;;;5063363;28;20544;-69
2023/03/02 15:07:17;;;;;;;19.10;8.43;;;13.30;1.00;;;;;;5066278;28;20911;-70
2023/03/02 15:09:42;;;;;;;15.57;9.30;;;13.30;1.00;;;;;;5069438;28;20831;-70
2023/03/02 15:12:09;;;;;;;16.73;9.37;;;13.30;1.00;;;;;;5059372;28;20412;-70
2023/03/02 15:14:35;;;;;;;22.73;10.10;;;13.30;1.00;;;;;;5066051;28;20175;-70
2023/03/02 15:17:01;;;;;;;17.83;9.00;;;13.30;1.00;;;;;;5073222;28;20413;-69
2023/03/02 15:19:27;;;;;;;16.37;9.23;;;13.30;1.00;;;;;;5061873;28;21117;-70
2023/03/02 15:21:53;;;;;;;24.40;9.47;;;13.20;1.00;;;;;;5067474;28;20421;-69
2023/03/02 15:24:22;;;;;;;21.30;9.50;;;13.20;1.00;;;;;;5068246;28;20182;-69
2023/03/02 15:26:51;;;;;;;16.23;9.07;;;13.20;1.00;;;;;;5064291;28;20167;-69
2023/03/02 15:29:18;;;;;;;15.87;9.00;;;13.30;1.00;;;;;;5072827;28;20959;-69
2023/03/02 15:31:44;;;;;;;14.27;8.63;;;13.20;1.00;;;;;;5063117;28;20393;-69
2023/03/02 15:34:10;;;;;;;29.30;9.03;;;13.10;1.00;;;;;;5069756;28;20436;-69
2023/03/02 15:36:36;;;;;;;17.37;10.20;;;13.10;1.00;;;;;;5066060;28;20417;-69
2023/03/02 15:39:02;;;;;;;15.43;8.70;;;13.20;1.00;;;;;;5068203;28;20428;-69
2023/03/02 15:41:28;;;;;;;16.07;9.67;;;13.20;1.00;;;;;;5076733;28;20647;-69
2023/03/02 15:43:54;;;;;;;18.40;9.30;;;13.20;1.00;;;;;;5070904;28;21862;-70
2023/03/02 15:46:21;;;;;;;17.47;9.47;;;13.20;1.00;;;;;;5071011;28;20453;-69
2023/03/02 15:48:47;;;;;;;17.30;9.57;;;13.30;1.00;;;;;;5065368;28;20476;-69
2023/03/02 15:51:13;;;;;;;17.53;8.20;;;13.40;1.00;;;;;;5066811;28;20887;-70
2023/03/02 15:53:39;;;;;;;17.67;9.60;;;13.70;1.00;;;;;;5060730;28;20472;-69
2023/03/02 15:56:12;;;;;;;21.60;9.33;;;14.00;1.00;;;;;;5065431;28;20397;-69
2023/03/02 15:58:39;;;;;;;19.13;8.77;;;14.40;1.00;;;;;;5073518;28;20447;-69
2023/03/02 16:01:11;;;;;;;22.97;9.70;;;14.60;1.00;;;;;;5051658;28;20769;-70
2023/03/02 16:03:37;;;;;;;14.37;8.80;;;14.90;1.00;;;;;;5073300;28;20522;-69
2023/03/02 16:06:03;;;;;;;22.93;10.13;;;15.10;1.00;;;;;;5076575;28;20930;-69
2023/03/02 16:08:29;;;;;;;18.50;9.80;;;15.50;1.00;;;;;;5063549;28;20775;-70
2023/03/02 16:11:00;;;;;;;18.17;9.93;;;15.50;1.00;;;;;;5068552;28;20457;-70
2023/03/02 16:13:26;;;;;;;14.63;9.13;;;15.70;1.00;;;;;;5082107;28;20171;-70
2023/03/02 16:15:52;;;;;;;19.63;9.43;;;15.80;1.00;;;;;;5075373;28;20437;-70
2023/03/02 16:18:18;;;;;;;27.17;8.30;;;15.70;1.00;;;;;;5069776;28;20424;-70
2023/03/02 16:20:44;;;;;;;17.90;9.07;;;15.50;1.00;;;;;;5061838;28;20176;-69
2023/03/02 16:23:10;;;;;;;13.27;7.87;;;15.10;1.00;;;;;;5069005;28;20186;-69